sensor_id;sensor_type;location;lat;lon;timestamp;temperature;humidity
4433;DHT22;2229;48.708;9.706;2023-04-16T00:01:11;8.60;99.90
4433;DHT22;2229;48.708;9.706;2023-04-16T00:03:42;8.60;99.90
4433;DHT22;2229;48.708;9.706;2023-04-16T00:06:10;8.50;99.90
4433;DHT22;2229;48.708;9.706;2023-04-16T00:08:37;8.60;99.90
4433;DHT22;2229;48.708;9.706;2023-04-16T00:11:07;8.60;99.90
4433;DHT22;2229;48.708;9.706;2023-04-16T00:13:34;8.60;99.90
4433;DHT22;2229;48.708;9.706;2023-04-16T00:16:01;8.60;99.90
4433;DHT22;2229;48.708;9.706;2023-04-16T00:18:29;8.70;99.90
4433;DHT22;2229;48.708;9.706;2023-04-16T00:20:57;8.70;99.90
4433;DHT22;2229;48.708;9.706;2023-04-16T00:23:25;8.70;99.90
4433;DHT22;2229;48.708;9.706;2023-04-16T00:25:52;8.70;99.90
4433;DHT22;2229;48.708;9.706;2023-04-16T00:28:24;8.70;99.90
4433;DHT22;2229;48.708;9.706;2023-04-16T00:30:53;8.70;99.90
4433;DHT22;2229;48.708;9.706;2023-04-16T00:33:21;8.70;99.90
4433;DHT22;2229;48.708;9.706;2023-04-16T00:35:48;8.60;99.90
4433;DHT22;2229;48.708;9.706;2023-04-16T00:38:15;8.60;99.90
4433;DHT22;2229;48.708;9.706;2023-04-16T00:40:42;8.60;99.90
4433;DHT22;2229;48.708;9.706;2023-04-16T00:43:10;8.60;99.90
4433;DHT22;2229;48.708;9.706;2023-04-16T00:45:39;8.60;99.90
4433;DHT22;2229;48.708;9.706;2023-04-16T00:48:06;8.60;99.90
4433;DHT22;2229;48.708;9.706;2023-04-16T00:50:34;8.50;99.90
4433;DHT22;2229;48.708;9.706;2023-04-16T00:53:02;8.50;99.90
4433;DHT22;2229;48.708;9.706;2023-04-16T00:55:30;8.50;99.90
4433;DHT22;2229;48.708;9.706;2023-04-16T00:57:57;8.50;99.90
4433;DHT22;2229;48.708;9.706;2023-04-16T01:00:24;8.50;99.90
4433;DHT22;2229;48.708;9.706;2023-04-16T01:02:54;8.60;99.90
4433;DHT22;2229;48.708;9.706;2023-04-16T01:05:21;8.50;99.90
4433;DHT22;2229;48.708;9.706;2023-04-16T01:07:49;8.50;99.90
4433;DHT22;2229;48.708;9.706;2023-04-16T01:10:17;8.50;99.90
4433;DHT22;2229;48.708;9.706;2023-04-16T01:12:45;8.50;99.90
4433;DHT22;2229;48.708;9.706;2023-04-16T01:15:13;8.50;99.90
4433;DHT22;2229;48.708;9.706;2023-04-16T01:17:41;8.50;99.90
4433;DHT22;2229;48.708;9.706;2023-04-16T01:20:12;8.50;99.90
4433;DHT22;2229;48.708;9.706;2023-04-16T01:22:41;8.50;99.90
4433;DHT22;2229;48.708;9.706;2023-04-16T01:25:12;8.50;99.90
4433;DHT22;2229;48.708;9.706;2023-04-16T01:27:39;8.50;99.90
4433;DHT22;2229;48.708;9.706;2023-04-16T01:30:07;8.50;99.90
4433;DHT22;2229;48.708;9.706;2023-04-16T01:32:56;8.50;99.90
4433;DHT22;2229;48.708;9.706;2023-04-16T01:35:24;8.50;99.90
4433;DHT22;2229;48.708;9.706;2023-04-16T01:37:54;8.60;99.90
4433;DHT22;2229;48.708;9.706;2023-04-16T01:40:21;8.60;99.90
4433;DHT22;2229;48.708;9.706;2023-04-16T01:42:48;8.60;99.90
4433;DHT22;2229;48.708;9.706;2023-04-16T01:45:16;8.60;99.90
4433;DHT22;2229;48.708;9.706;2023-04-16T01:47:43;8.60;99.90
4433;DHT22;2229;48.708;9.706;2023-04-16T01:50:11;8.60;99.90
4433;DHT22;2229;48.708;9.706;2023-04-16T01:52:38;8.60;99.90
4433;DHT22;2229;48.708;9.706;2023-04-16T01:55:08;8.60;99.90
4433;DHT22;2229;48.708;9.706;2023-04-16T01:57:35;8.60;99.90
4433;DHT22;2229;48.708;9.706;2023-04-16T02:00:06;8.60;99.90
4433;DHT22;2229;48.708;9.706;2023-04-16T02:02:44;8.60;99.90
4433;DHT22;2229;48.708;9.706;2023-04-16T02:05:16;8.50;99.90
4433;DHT22;2229;48.708;9.706;2023-04-16T02:07:45;8.50;99.90
4433;DHT22;2229;48.708;9.706;2023-04-16T02:10:14;8.50;99.90
4433;DHT22;2229;48.708;9.706;2023-04-16T02:12:42;8.50;99.90
4433;DHT22;2229;48.708;9.706;2023-04-16T02:15:12;8.50;99.90
4433;DHT22;2229;48.708;9.706;2023-04-16T02:17:40;8.50;99.90
4433;DHT22;2229;48.708;9.706;2023-04-16T02:20:11;8.50;99.90
4433;DHT22;2229;48.708;9.706;2023-04-16T02:22:49;8.50;99.90
4433;DHT22;2229;48.708;9.706;2023-04-16T02:25:21;8.50;99.90
4433;DHT22;2229;48.708;9.706;2023-04-16T02:27:49;8.40;99.90
4433;DHT22;2229;48.708;9.706;2023-04-16T02:30:32;8.40;99.90
4433;DHT22;2229;48.708;9.706;2023-04-16T02:33:00;8.60;99.90
4433;DHT22;2229;48.708;9.706;2023-04-16T02:35:28;8.40;99.90
4433;DHT22;2229;48.708;9.706;2023-04-16T02:37:57;8.40;99.90
4433;DHT22;2229;48.708;9.706;2023-04-16T02:40:26;8.40;99.90
4433;DHT22;2229;48.708;9.706;2023-04-16T02:42:53;8.40;99.90
4433;DHT22;2229;48.708;9.706;2023-04-16T02:45:22;8.40;99.90
4433;DHT22;2229;48.708;9.706;2023-04-16T02:47:50;8.40;99.90
4433;DHT22;2229;48.708;9.706;2023-04-16T02:50:17;8.40;99.90
4433;DHT22;2229;48.708;9.706;2023-04-16T02:52:45;8.40;99.90
4433;DHT22;2229;48.708;9.706;2023-04-16T02:55:12;8.40;99.90
4433;DHT22;2229;48.708;9.706;2023-04-16T02:57:42;8.40;99.90
4433;DHT22;2229;48.708;9.706;2023-04-16T03:00:12;8.30;99.90
4433;DHT22;2229;48.708;9.706;2023-04-16T03:02:39;8.30;99.90
4433;DHT22;2229;48.708;9.706;2023-04-16T03:05:08;8.30;99.90
4433;DHT22;2229;48.708;9.706;2023-04-16T03:07:35;8.30;99.90
4433;DHT22;2229;48.708;9.706;2023-04-16T03:10:05;8.30;99.90
4433;DHT22;2229;48.708;9.706;2023-04-16T03:12:32;8.30;99.90
4433;DHT22;2229;48.708;9.706;2023-04-16T03:15:01;8.30;99.90
4433;DHT22;2229;48.708;9.706;2023-04-16T03:17:29;8.30;99.90
4433;DHT22;2229;48.708;9.706;2023-04-16T03:19:56;8.30;99.90
4433;DHT22;2229;48.708;9.706;2023-04-16T03:22:24;8.30;99.90
4433;DHT22;2229;48.708;9.706;2023-04-16T03:24:51;8.30;99.90
4433;DHT22;2229;48.708;9.706;2023-04-16T03:27:18;8.20;99.90
4433;DHT22;2229;48.708;9.706;2023-04-16T03:29:46;8.20;99.90
4433;DHT22;2229;48.708;9.706;2023-04-16T03:32:15;8.20;99.90
4433;DHT22;2229;48.708;9.706;2023-04-16T03:34:43;8.20;99.90
4433;DHT22;2229;48.708;9.706;2023-04-16T03:37:10;8.20;99.90
4433;DHT22;2229;48.708;9.706;2023-04-16T03:39:38;8.20;99.90
4433;DHT22;2229;48.708;9.706;2023-04-16T03:42:05;8.20;99.90
4433;DHT22;2229;48.708;9.706;2023-04-16T03:44:35;8.20;99.90
4433;DHT22;2229;48.708;9.706;2023-04-16T03:47:02;8.20;99.90
4433;DHT22;2229;48.708;9.706;2023-04-16T03:49:31;8.20;99.90
4433;DHT22;2229;48.708;9.706;2023-04-16T03:51:59;8.20;99.90
4433;DHT22;2229;48.708;9.706;2023-04-16T03:54:26;8.20;99.90
4433;DHT22;2229;48.708;9.706;2023-04-16T03:57:05;8.30;99.90
4433;DHT22;2229;48.708;9.706;2023-04-16T03:59:32;8.30;99.90
4433;DHT22;2229;48.708;9.706;2023-04-16T04:02:00;8.30;99.90
4433;DHT22;2229;48.708;9.706;2023-04-16T04:04:27;8.30;99.90
4433;DHT22;2229;48.708;9.706;2023-04-16T04:06:55;8.30;99.90
4433;DHT22;2229;48.708;9.706;2023-04-16T04:09:24;8.30;99.90
4433;DHT22;2229;48.708;9.706;2023-04-16T04:11:52;8.30;99.90
4433;DHT22;2229;48.708;9.706;2023-04-16T04:14:20;8.30;99.90
4433;DHT22;2229;48.708;9.706;2023-04-16T04:16:48;8.30;99.90
4433;DHT22;2229;48.708;9.706;2023-04-16T04:19:15;8.30;99.90
4433;DHT22;2229;48.708;9.706;2023-04-16T04:21:42;8.30;99.90
4433;DHT22;2229;48.708;9.706;2023-04-16T04:24:11;8.30;99.90
4433;DHT22;2229;48.708;9.706;2023-04-16T04:26:38;8.30;99.90
4433;DHT22;2229;48.708;9.706;2023-04-16T04:29:05;8.30;99.90
4433;DHT22;2229;48.708;9.706;2023-04-16T04:31:34;8.40;99.90
4433;DHT22;2229;48.708;9.706;2023-04-16T04:34:01;8.40;99.90
4433;DHT22;2229;48.708;9.706;2023-04-16T04:36:28;8.40;99.90
4433;DHT22;2229;48.708;9.706;2023-04-16T04:38:56;8.40;99.90
4433;DHT22;2229;48.708;9.706;2023-04-16T04:41:25;8.40;99.90
4433;DHT22;2229;48.708;9.706;2023-04-16T04:43:53;8.40;99.90
4433;DHT22;2229;48.708;9.706;2023-04-16T04:46:20;8.40;99.90
4433;DHT22;2229;48.708;9.706;2023-04-16T04:48:49;8.40;99.90
4433;DHT22;2229;48.708;9.706;2023-04-16T04:51:17;8.40;99.90
4433;DHT22;2229;48.708;9.706;2023-04-16T04:53:46;8.40;99.90
4433;DHT22;2229;48.708;9.706;2023-04-16T04:56:14;8.40;99.90
4433;DHT22;2229;48.708;9.706;2023-04-16T04:58:42;8.40;99.90
4433;DHT22;2229;48.708;9.706;2023-04-16T05:01:09;8.40;99.90
4433;DHT22;2229;48.708;9.706;2023-04-16T05:03:36;8.40;99.90
4433;DHT22;2229;48.708;9.706;2023-04-16T05:06:04;8.40;99.90
4433;DHT22;2229;48.708;9.706;2023-04-16T05:08:31;8.40;99.90
4433;DHT22;2229;48.708;9.706;2023-04-16T05:10:58;8.50;99.90
4433;DHT22;2229;48.708;9.706;2023-04-16T05:13:25;8.50;99.90
4433;DHT22;2229;48.708;9.706;2023-04-16T05:15:54;8.50;99.90
4433;DHT22;2229;48.708;9.706;2023-04-16T05:18:21;8.50;99.90
4433;DHT22;2229;48.708;9.706;2023-04-16T05:20:48;8.50;99.90
4433;DHT22;2229;48.708;9.706;2023-04-16T05:23:15;8.50;99.90
4433;DHT22;2229;48.708;9.706;2023-04-16T05:25:43;8.50;99.90
4433;DHT22;2229;48.708;9.706;2023-04-16T05:28:10;8.50;99.90
4433;DHT22;2229;48.708;9.706;2023-04-16T05:30:37;8.50;99.90
4433;DHT22;2229;48.708;9.706;2023-04-16T05:33:05;8.50;99.90
4433;DHT22;2229;48.708;9.706;2023-04-16T05:35:33;8.50;99.90
4433;DHT22;2229;48.708;9.706;2023-04-16T05:38:00;8.60;99.90
4433;DHT22;2229;48.708;9.706;2023-04-16T05:40:30;8.60;99.90
4433;DHT22;2229;48.708;9.706;2023-04-16T05:42:57;8.70;99.90
4433;DHT22;2229;48.708;9.706;2023-04-16T05:45:25;8.80;99.90
4433;DHT22;2229;48.708;9.706;2023-04-16T05:47:52;8.80;99.90
4433;DHT22;2229;48.708;9.706;2023-04-16T05:50:21;8.80;99.90
4433;DHT22;2229;48.708;9.706;2023-04-16T05:52:48;8.80;99.90
4433;DHT22;2229;48.708;9.706;2023-04-16T05:55:15;8.80;99.90
4433;DHT22;2229;48.708;9.706;2023-04-16T05:57:42;8.80;99.90
4433;DHT22;2229;48.708;9.706;2023-04-16T06:00:10;8.80;99.90
4433;DHT22;2229;48.708;9.706;2023-04-16T06:02:41;8.70;99.90
4433;DHT22;2229;48.708;9.706;2023-04-16T06:05:09;8.80;99.90
4433;DHT22;2229;48.708;9.706;2023-04-16T06:07:37;8.80;99.90
4433;DHT22;2229;48.708;9.706;2023-04-16T06:10:05;8.80;99.90
4433;DHT22;2229;48.708;9.706;2023-04-16T06:12:33;8.80;99.90
4433;DHT22;2229;48.708;9.706;2023-04-16T06:15:01;8.80;99.90
4433;DHT22;2229;48.708;9.706;2023-04-16T06:17:29;8.80;99.90
4433;DHT22;2229;48.708;9.706;2023-04-16T06:19:56;8.70;99.90
4433;DHT22;2229;48.708;9.706;2023-04-16T06:22:24;8.70;99.90
4433;DHT22;2229;48.708;9.706;2023-04-16T06:24:52;8.70;99.90
4433;DHT22;2229;48.708;9.706;2023-04-16T06:27:20;8.80;99.90
4433;DHT22;2229;48.708;9.706;2023-04-16T06:29:47;8.80;99.90
4433;DHT22;2229;48.708;9.706;2023-04-16T06:32:16;8.70;99.90
4433;DHT22;2229;48.708;9.706;2023-04-16T06:34:43;8.70;99.90
4433;DHT22;2229;48.708;9.706;2023-04-16T06:37:10;8.80;99.90
4433;DHT22;2229;48.708;9.706;2023-04-16T06:39:38;8.80;99.90
4433;DHT22;2229;48.708;9.706;2023-04-16T06:42:06;8.70;99.90
4433;DHT22;2229;48.708;9.706;2023-04-16T06:44:34;8.80;99.90
4433;DHT22;2229;48.708;9.706;2023-04-16T06:47:02;8.70;99.90
4433;DHT22;2229;48.708;9.706;2023-04-16T06:49:31;8.80;99.90
4433;DHT22;2229;48.708;9.706;2023-04-16T06:51:59;8.80;99.90
4433;DHT22;2229;48.708;9.706;2023-04-16T06:54:26;8.80;99.90
4433;DHT22;2229;48.708;9.706;2023-04-16T06:56:53;8.90;99.90
4433;DHT22;2229;48.708;9.706;2023-04-16T06:59:22;8.90;99.90
4433;DHT22;2229;48.708;9.706;2023-04-16T07:01:50;9.00;99.90
4433;DHT22;2229;48.708;9.706;2023-04-16T07:04:17;8.90;99.90
4433;DHT22;2229;48.708;9.706;2023-04-16T07:06:45;9.00;99.90
4433;DHT22;2229;48.708;9.706;2023-04-16T07:09:12;9.00;99.90
4433;DHT22;2229;48.708;9.706;2023-04-16T07:11:41;9.00;99.90
4433;DHT22;2229;48.708;9.706;2023-04-16T07:14:08;9.00;99.90
4433;DHT22;2229;48.708;9.706;2023-04-16T07:16:37;9.00;99.90
4433;DHT22;2229;48.708;9.706;2023-04-16T07:19:05;9.00;99.90
4433;DHT22;2229;48.708;9.706;2023-04-16T07:21:32;9.00;99.90
4433;DHT22;2229;48.708;9.706;2023-04-16T07:24:00;9.00;99.90
4433;DHT22;2229;48.708;9.706;2023-04-16T07:26:27;9.00;99.90
4433;DHT22;2229;48.708;9.706;2023-04-16T07:28:55;9.10;99.90
4433;DHT22;2229;48.708;9.706;2023-04-16T07:31:22;9.10;99.90
4433;DHT22;2229;48.708;9.706;2023-04-16T07:33:50;9.10;99.90
4433;DHT22;2229;48.708;9.706;2023-04-16T07:36:18;9.10;99.90
4433;DHT22;2229;48.708;9.706;2023-04-16T07:38:45;9.10;99.90
4433;DHT22;2229;48.708;9.706;2023-04-16T07:41:13;9.10;99.90
4433;DHT22;2229;48.708;9.706;2023-04-16T07:43:40;9.10;99.90
4433;DHT22;2229;48.708;9.706;2023-04-16T07:46:08;9.10;99.90
4433;DHT22;2229;48.708;9.706;2023-04-16T07:48:35;9.10;99.90
4433;DHT22;2229;48.708;9.706;2023-04-16T07:51:04;9.00;99.90
4433;DHT22;2229;48.708;9.706;2023-04-16T07:53:31;9.10;99.90
4433;DHT22;2229;48.708;9.706;2023-04-16T07:55:58;9.00;99.90
4433;DHT22;2229;48.708;9.706;2023-04-16T07:58:27;9.00;99.90
4433;DHT22;2229;48.708;9.706;2023-04-16T08:00:54;9.00;99.90
4433;DHT22;2229;48.708;9.706;2023-04-16T08:03:22;9.10;99.90
4433;DHT22;2229;48.708;9.706;2023-04-16T08:05:49;9.10;99.90
4433;DHT22;2229;48.708;9.706;2023-04-16T08:08:17;9.10;99.90
4433;DHT22;2229;48.708;9.706;2023-04-16T08:10:44;9.10;99.90
4433;DHT22;2229;48.708;9.706;2023-04-16T08:13:12;9.20;99.90
4433;DHT22;2229;48.708;9.706;2023-04-16T08:15:39;9.20;99.90
4433;DHT22;2229;48.708;9.706;2023-04-16T08:18:06;9.30;99.90
4433;DHT22;2229;48.708;9.706;2023-04-16T08:20:37;9.30;99.90
4433;DHT22;2229;48.708;9.706;2023-04-16T08:23:05;9.30;99.90
4433;DHT22;2229;48.708;9.706;2023-04-16T08:25:34;9.30;99.90
4433;DHT22;2229;48.708;9.706;2023-04-16T08:28:01;9.30;99.90
4433;DHT22;2229;48.708;9.706;2023-04-16T08:30:28;9.30;99.90
4433;DHT22;2229;48.708;9.706;2023-04-16T08:32:55;9.40;99.90
4433;DHT22;2229;48.708;9.706;2023-04-16T08:35:23;9.40;99.90
4433;DHT22;2229;48.708;9.706;2023-04-16T08:37:51;9.50;99.90
4433;DHT22;2229;48.708;9.706;2023-04-16T08:40:20;9.50;99.90
4433;DHT22;2229;48.708;9.706;2023-04-16T08:42:52;9.50;99.90
4433;DHT22;2229;48.708;9.706;2023-04-16T08:45:20;9.50;99.90
4433;DHT22;2229;48.708;9.706;2023-04-16T08:47:49;9.50;99.90
4433;DHT22;2229;48.708;9.706;2023-04-16T08:50:18;9.50;99.90
4433;DHT22;2229;48.708;9.706;2023-04-16T08:52:50;9.40;99.90
4433;DHT22;2229;48.708;9.706;2023-04-16T08:55:21;9.40;99.90
4433;DHT22;2229;48.708;9.706;2023-04-16T08:57:57;9.40;99.90
4433;DHT22;2229;48.708;9.706;2023-04-16T09:00:25;9.50;99.90
4433;DHT22;2229;48.708;9.706;2023-04-16T09:02:54;9.40;99.90
4433;DHT22;2229;48.708;9.706;2023-04-16T09:05:21;9.50;99.90
4433;DHT22;2229;48.708;9.706;2023-04-16T09:07:52;9.40;99.90
4433;DHT22;2229;48.708;9.706;2023-04-16T09:10:19;9.30;99.90
4433;DHT22;2229;48.708;9.706;2023-04-16T09:12:47;9.30;99.90
4433;DHT22;2229;48.708;9.706;2023-04-16T09:15:16;9.20;99.90
4433;DHT22;2229;48.708;9.706;2023-04-16T09:17:47;9.10;99.90
4433;DHT22;2229;48.708;9.706;2023-04-16T09:20:15;9.20;99.90
4433;DHT22;2229;48.708;9.706;2023-04-16T09:22:42;9.10;99.90
4433;DHT22;2229;48.708;9.706;2023-04-16T09:25:11;9.10;99.90
4433;DHT22;2229;48.708;9.706;2023-04-16T09:27:38;9.20;99.90
4433;DHT22;2229;48.708;9.706;2023-04-16T09:30:20;9.10;99.90
4433;DHT22;2229;48.708;9.706;2023-04-16T09:32:48;9.20;99.90
4433;DHT22;2229;48.708;9.706;2023-04-16T09:35:17;9.10;99.90
4433;DHT22;2229;48.708;9.706;2023-04-16T09:37:54;9.20;99.90
4433;DHT22;2229;48.708;9.706;2023-04-16T09:40:26;9.20;99.90
4433;DHT22;2229;48.708;9.706;2023-04-16T09:42:56;9.20;99.90
4433;DHT22;2229;48.708;9.706;2023-04-16T09:45:30;9.10;99.90
4433;DHT22;2229;48.708;9.706;2023-04-16T09:48:02;9.10;99.90
4433;DHT22;2229;48.708;9.706;2023-04-16T09:50:30;9.10;99.90
4433;DHT22;2229;48.708;9.706;2023-04-16T09:53:00;9.10;99.90
4433;DHT22;2229;48.708;9.706;2023-04-16T09:55:28;9.10;99.90
4433;DHT22;2229;48.708;9.706;2023-04-16T09:57:59;9.10;99.90
4433;DHT22;2229;48.708;9.706;2023-04-16T10:00:29;9.20;99.90
4433;DHT22;2229;48.708;9.706;2023-04-16T10:03:03;9.20;99.90
4433;DHT22;2229;48.708;9.706;2023-04-16T10:05:31;9.20;99.90
4433;DHT22;2229;48.708;9.706;2023-04-16T10:07:59;9.10;99.90
4433;DHT22;2229;48.708;9.706;2023-04-16T10:10:28;9.10;99.90
4433;DHT22;2229;48.708;9.706;2023-04-16T10:12:57;9.00;99.90
4433;DHT22;2229;48.708;9.706;2023-04-16T10:15:24;9.00;99.90
4433;DHT22;2229;48.708;9.706;2023-04-16T10:17:53;9.00;99.90
4433;DHT22;2229;48.708;9.706;2023-04-16T10:20:22;9.00;99.90
4433;DHT22;2229;48.708;9.706;2023-04-16T10:22:50;9.00;99.90
4433;DHT22;2229;48.708;9.706;2023-04-16T10:25:18;9.10;99.90
4433;DHT22;2229;48.708;9.706;2023-04-16T10:27:46;9.10;99.90
4433;DHT22;2229;48.708;9.706;2023-04-16T10:30:14;9.10;99.90
4433;DHT22;2229;48.708;9.706;2023-04-16T10:32:44;9.10;99.90
4433;DHT22;2229;48.708;9.706;2023-04-16T10:35:18;9.20;99.90
4433;DHT22;2229;48.708;9.706;2023-04-16T10:37:46;9.20;99.90
4433;DHT22;2229;48.708;9.706;2023-04-16T10:40:26;9.30;99.90
4433;DHT22;2229;48.708;9.706;2023-04-16T10:42:58;9.30;99.90
4433;DHT22;2229;48.708;9.706;2023-04-16T10:45:29;9.30;99.90
4433;DHT22;2229;48.708;9.706;2023-04-16T10:47:57;9.30;99.90
4433;DHT22;2229;48.708;9.706;2023-04-16T10:50:33;9.20;99.90
4433;DHT22;2229;48.708;9.706;2023-04-16T10:53:20;9.20;99.90
4433;DHT22;2229;48.708;9.706;2023-04-16T10:56:09;9.20;99.90
4433;DHT22;2229;48.708;9.706;2023-04-16T10:58:40;9.10;99.90
4433;DHT22;2229;48.708;9.706;2023-04-16T11:01:11;9.10;99.90
4433;DHT22;2229;48.708;9.706;2023-04-16T11:03:45;9.10;99.90
4433;DHT22;2229;48.708;9.706;2023-04-16T11:06:15;9.10;99.90
4433;DHT22;2229;48.708;9.706;2023-04-16T11:08:43;9.10;99.90
4433;DHT22;2229;48.708;9.706;2023-04-16T11:11:12;9.10;99.90
4433;DHT22;2229;48.708;9.706;2023-04-16T11:13:42;9.10;99.90
4433;DHT22;2229;48.708;9.706;2023-04-16T11:16:10;9.20;99.90
4433;DHT22;2229;48.708;9.706;2023-04-16T11:18:39;9.20;99.90
4433;DHT22;2229;48.708;9.706;2023-04-16T11:21:07;9.30;99.90
4433;DHT22;2229;48.708;9.706;2023-04-16T11:23:47;9.30;99.90
4433;DHT22;2229;48.708;9.706;2023-04-16T11:26:25;9.40;99.90
4433;DHT22;2229;48.708;9.706;2023-04-16T11:28:54;9.40;99.90
4433;DHT22;2229;48.708;9.706;2023-04-16T11:31:22;9.30;99.90
4433;DHT22;2229;48.708;9.706;2023-04-16T11:33:49;9.30;99.90
4433;DHT22;2229;48.708;9.706;2023-04-16T11:36:18;9.40;99.90
4433;DHT22;2229;48.708;9.706;2023-04-16T11:38:47;9.40;99.90
4433;DHT22;2229;48.708;9.706;2023-04-16T11:41:19;9.30;99.90
4433;DHT22;2229;48.708;9.706;2023-04-16T11:43:48;9.40;99.90
4433;DHT22;2229;48.708;9.706;2023-04-16T11:46:15;9.40;99.90
4433;DHT22;2229;48.708;9.706;2023-04-16T11:48:47;9.30;99.90
4433;DHT22;2229;48.708;9.706;2023-04-16T11:51:17;9.30;99.90
4433;DHT22;2229;48.708;9.706;2023-04-16T11:53:48;9.30;99.90
4433;DHT22;2229;48.708;9.706;2023-04-16T11:56:24;9.30;99.90
4433;DHT22;2229;48.708;9.706;2023-04-16T11:59:08;9.30;99.90
4433;DHT22;2229;48.708;9.706;2023-04-16T12:01:37;9.20;99.90
4433;DHT22;2229;48.708;9.706;2023-04-16T12:04:05;9.30;99.90
4433;DHT22;2229;48.708;9.706;2023-04-16T12:06:33;9.30;99.90
4433;DHT22;2229;48.708;9.706;2023-04-16T12:09:21;9.30;99.90
4433;DHT22;2229;48.708;9.706;2023-04-16T12:11:48;9.40;99.90
4433;DHT22;2229;48.708;9.706;2023-04-16T12:14:16;9.30;99.90
4433;DHT22;2229;48.708;9.706;2023-04-16T12:16:43;9.30;99.90
4433;DHT22;2229;48.708;9.706;2023-04-16T12:19:11;9.40;99.90
4433;DHT22;2229;48.708;9.706;2023-04-16T12:21:41;9.30;99.90
4433;DHT22;2229;48.708;9.706;2023-04-16T12:24:11;9.40;99.90
4433;DHT22;2229;48.708;9.706;2023-04-16T12:26:40;9.40;99.90
4433;DHT22;2229;48.708;9.706;2023-04-16T12:29:15;9.50;99.90
4433;DHT22;2229;48.708;9.706;2023-04-16T12:31:43;9.50;99.90
4433;DHT22;2229;48.708;9.706;2023-04-16T12:34:10;9.50;99.90
4433;DHT22;2229;48.708;9.706;2023-04-16T12:36:37;9.50;99.90
4433;DHT22;2229;48.708;9.706;2023-04-16T12:39:05;9.50;99.90
4433;DHT22;2229;48.708;9.706;2023-04-16T12:41:36;9.50;99.90
4433;DHT22;2229;48.708;9.706;2023-04-16T12:44:04;9.50;99.90
4433;DHT22;2229;48.708;9.706;2023-04-16T12:46:35;9.50;99.90
4433;DHT22;2229;48.708;9.706;2023-04-16T12:49:03;9.50;99.90
4433;DHT22;2229;48.708;9.706;2023-04-16T12:51:31;9.50;99.90
4433;DHT22;2229;48.708;9.706;2023-04-16T12:53:59;9.50;99.90
4433;DHT22;2229;48.708;9.706;2023-04-16T12:56:27;9.50;99.90
4433;DHT22;2229;48.708;9.706;2023-04-16T12:58:56;9.50;99.90
4433;DHT22;2229;48.708;9.706;2023-04-16T13:01:23;9.50;99.90
4433;DHT22;2229;48.708;9.706;2023-04-16T13:03:51;9.50;99.90
4433;DHT22;2229;48.708;9.706;2023-04-16T13:06:19;9.50;99.90
4433;DHT22;2229;48.708;9.706;2023-04-16T13:08:46;9.50;99.90
4433;DHT22;2229;48.708;9.706;2023-04-16T13:11:13;9.50;99.90
4433;DHT22;2229;48.708;9.706;2023-04-16T13:13:40;9.50;99.90
4433;DHT22;2229;48.708;9.706;2023-04-16T13:16:09;9.50;99.90
4433;DHT22;2229;48.708;9.706;2023-04-16T13:18:37;9.50;99.90
4433;DHT22;2229;48.708;9.706;2023-04-16T13:21:05;9.40;99.90
4433;DHT22;2229;48.708;9.706;2023-04-16T13:23:33;9.40;99.90
4433;DHT22;2229;48.708;9.706;2023-04-16T13:26:00;9.40;99.90
4433;DHT22;2229;48.708;9.706;2023-04-16T13:28:27;9.50;99.90
4433;DHT22;2229;48.708;9.706;2023-04-16T13:30:55;9.40;99.90
4433;DHT22;2229;48.708;9.706;2023-04-16T13:33:26;9.40;99.90
4433;DHT22;2229;48.708;9.706;2023-04-16T13:35:53;9.50;99.90
4433;DHT22;2229;48.708;9.706;2023-04-16T13:38:20;9.40;99.90
4433;DHT22;2229;48.708;9.706;2023-04-16T13:40:48;9.50;99.90
4433;DHT22;2229;48.708;9.706;2023-04-16T13:43:15;9.50;99.90
4433;DHT22;2229;48.708;9.706;2023-04-16T13:45:43;9.50;99.90
4433;DHT22;2229;48.708;9.706;2023-04-16T13:48:11;9.50;99.90
4433;DHT22;2229;48.708;9.706;2023-04-16T13:50:39;9.50;99.90
4433;DHT22;2229;48.708;9.706;2023-04-16T13:53:06;9.50;99.90
4433;DHT22;2229;48.708;9.706;2023-04-16T13:55:34;9.50;99.90
4433;DHT22;2229;48.708;9.706;2023-04-16T13:58:01;9.60;99.90
4433;DHT22;2229;48.708;9.706;2023-04-16T14:00:29;9.60;99.90
4433;DHT22;2229;48.708;9.706;2023-04-16T14:02:57;9.60;99.90
4433;DHT22;2229;48.708;9.706;2023-04-16T14:05:24;9.60;99.90
4433;DHT22;2229;48.708;9.706;2023-04-16T14:07:53;9.70;99.90
4433;DHT22;2229;48.708;9.706;2023-04-16T14:10:20;9.60;99.90
4433;DHT22;2229;48.708;9.706;2023-04-16T14:12:47;9.70;99.90
4433;DHT22;2229;48.708;9.706;2023-04-16T14:15:16;9.70;99.90
4433;DHT22;2229;48.708;9.706;2023-04-16T14:17:43;9.60;99.90
4433;DHT22;2229;48.708;9.706;2023-04-16T14:20:12;9.60;99.90
4433;DHT22;2229;48.708;9.706;2023-04-16T14:22:39;9.60;99.90
4433;DHT22;2229;48.708;9.706;2023-04-16T14:25:10;9.60;99.90
4433;DHT22;2229;48.708;9.706;2023-04-16T14:27:37;9.60;99.90
4433;DHT22;2229;48.708;9.706;2023-04-16T14:30:05;9.60;99.90
4433;DHT22;2229;48.708;9.706;2023-04-16T14:32:32;9.60;99.90
4433;DHT22;2229;48.708;9.706;2023-04-16T14:35:00;9.60;99.90
4433;DHT22;2229;48.708;9.706;2023-04-16T14:37:29;9.60;99.90
4433;DHT22;2229;48.708;9.706;2023-04-16T14:39:57;9.60;99.90
4433;DHT22;2229;48.708;9.706;2023-04-16T14:42:25;9.60;99.90
4433;DHT22;2229;48.708;9.706;2023-04-16T14:44:52;9.60;99.90
4433;DHT22;2229;48.708;9.706;2023-04-16T14:47:20;9.60;99.90
4433;DHT22;2229;48.708;9.706;2023-04-16T14:49:49;9.50;99.90
4433;DHT22;2229;48.708;9.706;2023-04-16T14:52:16;9.60;99.90
4433;DHT22;2229;48.708;9.706;2023-04-16T14:54:44;9.60;99.90
4433;DHT22;2229;48.708;9.706;2023-04-16T14:57:12;9.60;99.90
4433;DHT22;2229;48.708;9.706;2023-04-16T14:59:41;9.60;99.90
4433;DHT22;2229;48.708;9.706;2023-04-16T15:02:09;9.60;99.90
4433;DHT22;2229;48.708;9.706;2023-04-16T15:04:36;9.60;99.90
4433;DHT22;2229;48.708;9.706;2023-04-16T15:07:03;9.60;99.90
4433;DHT22;2229;48.708;9.706;2023-04-16T15:09:30;9.70;99.90
4433;DHT22;2229;48.708;9.706;2023-04-16T15:11:58;9.60;99.90
4433;DHT22;2229;48.708;9.706;2023-04-16T15:14:25;9.60;99.90
4433;DHT22;2229;48.708;9.706;2023-04-16T15:16:54;9.60;99.90
4433;DHT22;2229;48.708;9.706;2023-04-16T15:19:25;9.60;99.90
4433;DHT22;2229;48.708;9.706;2023-04-16T15:21:52;9.60;99.90
4433;DHT22;2229;48.708;9.706;2023-04-16T15:24:20;9.60;99.90
4433;DHT22;2229;48.708;9.706;2023-04-16T15:26:47;9.60;99.90
4433;DHT22;2229;48.708;9.706;2023-04-16T15:29:15;9.60;99.90
4433;DHT22;2229;48.708;9.706;2023-04-16T15:31:42;9.70;99.90
4433;DHT22;2229;48.708;9.706;2023-04-16T15:34:11;9.70;99.90
4433;DHT22;2229;48.708;9.706;2023-04-16T15:36:38;9.60;99.90
4433;DHT22;2229;48.708;9.706;2023-04-16T15:39:05;9.60;99.90
4433;DHT22;2229;48.708;9.706;2023-04-16T15:41:32;9.60;99.90
4433;DHT22;2229;48.708;9.706;2023-04-16T15:44:00;9.70;99.90
4433;DHT22;2229;48.708;9.706;2023-04-16T15:46:28;9.70;99.90
4433;DHT22;2229;48.708;9.706;2023-04-16T15:48:56;9.60;99.90
4433;DHT22;2229;48.708;9.706;2023-04-16T15:51:25;9.60;99.90
4433;DHT22;2229;48.708;9.706;2023-04-16T15:53:54;9.70;99.90
4433;DHT22;2229;48.708;9.706;2023-04-16T15:56:22;9.70;99.90
4433;DHT22;2229;48.708;9.706;2023-04-16T15:58:50;9.70;99.90
4433;DHT22;2229;48.708;9.706;2023-04-16T16:01:17;9.70;99.90
4433;DHT22;2229;48.708;9.706;2023-04-16T16:03:44;9.70;99.90
4433;DHT22;2229;48.708;9.706;2023-04-16T16:06:12;9.70;99.90
4433;DHT22;2229;48.708;9.706;2023-04-16T16:08:44;9.70;99.90
4433;DHT22;2229;48.708;9.706;2023-04-16T16:11:12;9.70;99.90
4433;DHT22;2229;48.708;9.706;2023-04-16T16:13:40;9.70;99.90
4433;DHT22;2229;48.708;9.706;2023-04-16T16:16:08;9.70;99.90
4433;DHT22;2229;48.708;9.706;2023-04-16T16:18:37;9.70;99.90
4433;DHT22;2229;48.708;9.706;2023-04-16T16:21:04;9.80;99.90
4433;DHT22;2229;48.708;9.706;2023-04-16T16:23:32;9.70;99.90
4433;DHT22;2229;48.708;9.706;2023-04-16T16:26:01;9.70;99.90